Time;durP1;ratioP1;P1;durP2;ratioP2;P2;SDS_P1;SDS_P2;PMS_P1;PMS_P2;Temp;Humidity;BMP_temperature;BMP_pressure;BME280_temperature;BME280_humidity;BME280_pressure;Samples;Min_cycle;Max_cycle;Signal;HPM_P1;HPM_P2
2022/11/07 00:02:18;;;;;;;15.98;10.68;;;10.20;99.90;;;;;;4953334;28;20489;-73
2022/11/07 00:04:44;;;;;;;18.83;10.38;;;10.30;99.90;;;;;;4951952;29;20050;-72
2022/11/07 00:07:09;;;;;;;17.42;10.10;;;10.50;99.90;;;;;;4953363;29;20051;-73
2022/11/07 00:09:35;;;;;;;14.80;10.18;;;10.30;99.90;;;;;;4953321;29;20498;-73
2022/11/07 00:12:01;;;;;;;18.25;11.00;;;10.40;99.90;;;;;;4953133;29;20489;-73
2022/11/07 00:14:26;;;;;;;14.30;10.38;;;10.40;99.90;;;;;;4952838;29;20044;-73
2022/11/07 00:16:52;;;;;;;15.82;9.93;;;10.50;99.90;;;;;;4951916;29;20047;-73
2022/11/07 00:19:20;;;;;;;12.73;9.25;;;10.40;99.90;;;;;;4953300;29;20036;-73
2022/11/07 00:21:47;;;;;;;12.38;8.90;;;10.50;99.90;;;;;;4953183;29;20058;-73
2022/11/07 00:24:16;;;;;;;15.35;9.43;;;10.60;99.90;;;;;;4952815;28;20339;-73
2022/11/07 00:26:42;;;;;;;13.07;9.38;;;10.60;99.90;;;;;;4953067;29;20097;-73
2022/11/07 00:29:12;;;;;;;19.38;9.75;;;10.60;99.90;;;;;;4953291;29;20043;-72
2022/11/07 00:31:38;;;;;;;12.18;8.55;;;10.40;99.90;;;;;;4936099;29;20074;-73
2022/11/07 00:34:04;;;;;;;12.30;10.00;;;10.50;99.90;;;;;;4953450;28;20035;-73
2022/11/07 00:36:29;;;;;;;12.82;8.90;;;10.60;99.90;;;;;;4956744;29;20054;-73
2022/11/07 00:38:55;;;;;;;15.73;9.10;;;10.50;99.90;;;;;;4956573;29;20055;-73
2022/11/07 00:41:22;;;;;;;14.05;8.98;;;10.70;99.90;;;;;;4956322;28;20046;-73
2022/11/07 00:43:47;;;;;;;15.23;9.02;;;10.60;99.90;;;;;;4939074;29;20042;-72
2022/11/07 00:46:15;;;;;;;13.82;9.00;;;10.70;99.90;;;;;;4939470;29;20409;-73
2022/11/07 00:48:40;;;;;;;17.15;8.90;;;10.50;99.90;;;;;;4939306;29;20134;-73
2022/11/07 00:51:12;;;;;;;16.83;8.68;;;10.60;99.90;;;;;;4939084;29;20089;-73
2022/11/07 00:53:38;;;;;;;12.90;9.40;;;10.70;99.90;;;;;;4956102;29;20071;-73
2022/11/07 00:56:07;;;;;;;12.80;9.02;;;10.60;99.90;;;;;;4939181;28;20414;-73
2022/11/07 00:58:33;;;;;;;13.10;8.73;;;10.70;99.90;;;;;;4939082;29;20066;-73
2022/11/07 01:01:05;;;;;;;11.88;8.13;;;10.60;99.90;;;;;;4938861;29;20051;-73
2022/11/07 01:06:14;;;;;;;16.67;8.05;;;10.70;99.90;;;;;;4956081;29;20724;-73
2022/11/07 01:08:40;;;;;;;13.45;7.35;;;10.80;99.90;;;;;;4955958;29;20051;-73
2022/11/07 01:11:06;;;;;;;16.90;7.82;;;10.90;99.90;;;;;;4956119;29;20094;-73
2022/11/07 01:13:32;;;;;;;12.93;8.15;;;10.90;99.90;;;;;;4955694;29;20043;-73
2022/11/07 01:15:58;;;;;;;14.05;7.40;;;10.80;99.90;;;;;;4938734;29;20490;-73
2022/11/07 01:18:24;;;;;;;11.25;7.75;;;10.80;99.90;;;;;;4938721;29;20066;-73
2022/11/07 01:20:49;;;;;;;13.27;7.25;;;10.80;99.90;;;;;;4938715;29;20043;-73
2022/11/07 01:23:16;;;;;;;14.50;7.43;;;10.90;99.90;;;;;;4955390;29;20031;-73
2022/11/07 01:25:42;;;;;;;16.42;7.55;;;10.90;99.90;;;;;;4938394;29;20044;-72
2022/11/07 01:28:08;;;;;;;9.88;7.18;;;10.90;99.90;;;;;;4955685;28;20039;-73
2022/11/07 01:30:41;;;;;;;11.15;7.30;;;11.10;99.90;;;;;;4955504;29;20036;-73
2022/11/07 01:33:07;;;;;;;15.00;6.80;;;11.10;99.90;;;;;;4955324;29;20043;-73
2022/11/07 01:35:33;;;;;;;9.95;7.32;;;11.10;99.90;;;;;;4938280;29;20035;-73
2022/11/07 01:37:59;;;;;;;12.57;7.45;;;11.00;99.90;;;;;;4955609;29;20049;-73
2022/11/07 01:40:24;;;;;;;15.32;7.00;;;11.00;99.90;;;;;;4955305;29;20047;-73
2022/11/07 01:42:50;;;;;;;10.93;7.10;;;11.00;99.90;;;;;;4955167;28;20047;-73
2022/11/07 01:45:28;;;;;;;13.25;7.07;;;11.00;99.90;;;;;;4954723;28;20474;-73
2022/11/07 01:47:57;;;;;;;13.93;6.80;;;11.10;99.90;;;;;;4954996;28;20158;-73
2022/11/07 01:50:23;;;;;;;13.25;6.28;;;10.90;99.90;;;;;;4955108;28;20047;-73
2022/11/07 01:52:50;;;;;;;15.90;7.45;;;11.00;99.90;;;;;;4937722;29;20419;-73
2022/11/07 01:55:28;;;;;;;12.98;6.53;;;11.10;99.90;;;;;;4937839;29;20525;-73
2022/11/07 01:58:12;;;;;;;21.23;6.85;;;11.20;99.90;;;;;;4955188;28;20122;-73
2022/11/07 02:00:37;;;;;;;;;;;11.10;99.90;;;;;;4938145;28;20071;-72
2022/11/07 02:03:08;;;;;;;18.38;7.32;;;10.90;99.90;;;;;;4937529;29;19922;-72
2022/11/07 02:05:39;;;;;;;10.10;6.68;;;11.00;99.90;;;;;;4937782;29;20549;-73
2022/11/07 02:08:07;;;;;;;10.82;7.13;;;11.00;99.90;;;;;;4955032;29;20043;-73
2022/11/07 02:10:38;;;;;;;16.85;6.28;;;11.20;99.90;;;;;;4937597;29;20051;-72
2022/11/07 02:13:05;;;;;;;17.73;6.65;;;11.10;99.90;;;;;;4937278;29;20126;-73
2022/11/07 02:15:33;;;;;;;16.88;6.13;;;11.20;99.90;;;;;;4954815;29;20089;-73
2022/11/07 02:17:59;;;;;;;15.82;6.72;;;11.10;99.90;;;;;;4937362;29;20416;-73
2022/11/07 02:20:25;;;;;;;12.05;5.82;;;11.10;99.90;;;;;;4937504;29;20039;-72
2022/11/07 02:23:05;;;;;;;12.98;6.50;;;11.20;99.90;;;;;;4937196;29;20113;-73
2022/11/07 02:25:31;;;;;;;14.15;6.65;;;11.10;99.90;;;;;;4937349;29;20035;-73
2022/11/07 02:28:00;;;;;;;17.50;6.72;;;11.00;99.90;;;;;;4954788;29;20099;-73
2022/11/07 02:30:29;;;;;;;15.52;8.13;;;11.00;99.90;;;;;;4954635;29;20070;-73
2022/11/07 02:32:55;;;;;;;14.65;6.80;;;11.30;99.90;;;;;;4954276;28;20050;-73
2022/11/07 02:35:43;;;;;;;21.50;7.60;;;11.20;99.90;;;;;;4954593;29;20085;-73
2022/11/07 02:38:13;;;;;;;13.40;7.07;;;11.30;99.90;;;;;;4937044;29;20043;-73
2022/11/07 02:40:39;;;;;;;11.30;7.53;;;11.10;99.90;;;;;;4937029;29;20571;-73
2022/11/07 02:43:07;;;;;;;17.98;7.40;;;11.00;99.90;;;;;;4954183;29;20114;-73
2022/11/07 02:45:36;;;;;;;16.98;8.10;;;11.00;99.90;;;;;;4954230;29;20035;-73
2022/11/07 02:48:02;;;;;;;12.48;6.95;;;11.20;99.90;;;;;;4937084;29;20051;-72
2022/11/07 02:50:28;;;;;;;18.55;8.40;;;11.00;99.90;;;;;;4954062;28;20125;-72
2022/11/07 02:52:54;;;;;;;20.08;8.43;;;10.90;99.90;;;;;;4954170;29;20075;-73
2022/11/07 02:55:19;;;;;;;25.50;9.13;;;11.10;99.90;;;;;;4954234;29;20039;-72
2022/11/07 02:57:45;;;;;;;17.35;9.00;;;11.00;99.90;;;;;;4953732;28;20635;-73
2022/11/07 03:00:13;;;;;;;23.08;9.48;;;11.00;99.90;;;;;;4953941;29;20110;-73
2022/11/07 03:02:39;;;;;;;18.58;8.57;;;10.80;99.90;;;;;;4953720;29;20041;-73
2022/11/07 03:05:05;;;;;;;14.25;7.65;;;10.90;99.90;;;;;;4953908;28;20090;-72
2022/11/07 03:07:30;;;;;;;13.30;7.75;;;10.80;99.90;;;;;;4953881;29;20437;-73
2022/11/07 03:09:56;;;;;;;14.63;7.88;;;10.80;99.90;;;;;;4954020;29;20390;-73
2022/11/07 03:12:22;;;;;;;16.38;8.43;;;11.00;99.90;;;;;;4953769;29;20063;-72
2022/11/07 03:14:47;;;;;;;17.00;7.63;;;10.80;99.90;;;;;;4953916;28;20039;-72
2022/11/07 03:17:13;;;;;;;16.17;7.13;;;11.00;99.90;;;;;;4936627;29;20066;-72
2022/11/07 03:19:38;;;;;;;14.68;7.18;;;11.00;99.90;;;;;;4953646;29;20051;-72
2022/11/07 03:22:04;;;;;;;16.58;7.70;;;10.80;99.90;;;;;;4936562;29;20042;-72
2022/11/07 03:24:31;;;;;;;20.10;7.40;;;10.80;99.90;;;;;;4936318;29;20047;-72
2022/11/07 03:26:57;;;;;;;11.10;7.57;;;10.70;99.90;;;;;;4953776;29;20039;-72
2022/11/07 03:29:22;;;;;;;18.00;7.57;;;10.70;99.90;;;;;;4936687;29;20047;-72
2022/11/07 03:31:48;;;;;;;19.63;7.72;;;10.80;99.90;;;;;;4936432;29;20185;-72
2022/11/07 03:34:13;;;;;;;15.65;8.52;;;10.60;99.90;;;;;;4936455;29;20054;-72
2022/11/07 03:36:39;;;;;;;20.15;8.13;;;10.80;99.90;;;;;;4936395;29;20047;-72
2022/11/07 03:39:05;;;;;;;18.48;7.95;;;10.60;99.90;;;;;;4953654;29;20035;-72
2022/11/07 03:41:30;;;;;;;16.98;7.75;;;10.80;99.90;;;;;;4953476;28;20501;-73
2022/11/07 03:43:56;;;;;;;19.83;7.45;;;10.70;99.90;;;;;;4936001;29;20043;-73
2022/11/07 03:46:21;;;;;;;17.80;7.75;;;10.70;99.90;;;;;;4953620;29;20065;-73
2022/11/07 03:48:47;;;;;;;15.65;6.90;;;10.60;99.90;;;;;;4953582;29;20049;-73
2022/11/07 03:51:12;;;;;;;12.05;7.00;;;10.60;99.90;;;;;;4953339;29;20043;-73
2022/11/07 03:53:38;;;;;;;14.52;7.30;;;10.60;99.90;;;;;;4953273;29;20043;-73
2022/11/07 03:56:08;;;;;;;28.98;7.95;;;10.50;99.90;;;;;;4936225;29;20051;-73
2022/11/07 03:58:34;;;;;;;10.93;7.03;;;10.70;99.90;;;;;;4953366;29;20043;-73
2022/11/07 04:01:00;;;;;;;11.93;7.82;;;10.70;99.90;;;;;;4953422;29;20040;-73
2022/11/07 04:03:25;;;;;;;13.00;6.93;;;10.70;99.90;;;;;;4953090;29;20565;-73
2022/11/07 04:05:51;;;;;;;15.10;7.53;;;10.70;99.90;;;;;;4953623;29;20039;-73
2022/11/07 04:08:16;;;;;;;18.33;7.60;;;10.80;99.90;;;;;;4953516;28;20043;-73
2022/11/07 04:10:42;;;;;;;14.55;7.32;;;10.70;99.90;;;;;;4956313;29;20043;-73
2022/11/07 04:17:17;;;;;;;19.95;8.15;;;10.80;99.90;;;;;;4957074;29;20051;-73
2022/11/07 04:18:55;;;;;;;13.43;6.68;;;10.80;99.90;;;;;;4956696;29;20115;-73
2022/11/07 04:21:21;;;;;;;18.45;7.28;;;10.70;99.90;;;;;;4956911;29;20047;-73
2022/11/07 04:23:46;;;;;;;21.05;7.25;;;10.50;99.90;;;;;;4939329;29;20043;-73
2022/11/07 04:28:56;;;;;;;14.80;6.88;;;10.60;99.90;;;;;;4957016;28;20061;-74
2022/11/07 04:31:21;;;;;;;15.63;7.00;;;10.60;99.90;;;;;;4956832;28;20039;-73
2022/11/07 04:33:47;;;;;;;18.17;6.78;;;10.70;99.90;;;;;;4956656;29;20119;-74
2022/11/07 04:36:13;;;;;;;14.07;6.68;;;10.50;99.90;;;;;;4956527;29;20399;-74
2022/11/07 04:38:38;;;;;;;16.65;7.20;;;10.60;99.90;;;;;;4956439;29;20044;-74
2022/11/07 04:41:04;;;;;;;20.75;8.27;;;10.60;99.90;;;;;;4956270;28;20050;-74
2022/11/07 04:43:30;;;;;;;22.60;8.35;;;10.70;99.90;;;;;;4960371;28;20046;-74
2022/11/07 04:45:56;;;;;;;16.33;7.38;;;10.70;99.90;;;;;;4966534;28;20035;-73
2022/11/07 04:48:21;;;;;;;17.98;7.55;;;10.70;99.90;;;;;;4950271;28;20034;-73
2022/11/07 04:50:47;;;;;;;16.45;6.85;;;10.60;99.90;;;;;;4975619;28;20125;-73
2022/11/07 04:53:15;;;;;;;20.80;9.02;;;10.50;99.90;;;;;;4975239;28;20133;-74
2022/11/07 04:55:41;;;;;;;14.98;7.50;;;10.70;99.90;;;;;;4975430;28;20046;-73
2022/11/07 04:58:07;;;;;;;20.92;8.15;;;10.50;99.90;;;;;;4975366;28;20046;-73
2022/11/07 05:00:32;;;;;;;15.13;7.82;;;10.50;99.90;;;;;;4975838;28;20027;-73
2022/11/07 05:02:58;;;;;;;21.30;9.00;;;10.70;99.90;;;;;;4975230;28;20042;-73
2022/11/07 05:05:24;;;;;;;14.73;8.13;;;10.70;99.90;;;;;;4975423;28;20072;-73
2022/11/07 05:07:49;;;;;;;15.77;8.27;;;10.60;99.90;;;;;;4975685;28;20054;-73
2022/11/07 05:10:21;;;;;;;22.67;8.88;;;10.80;99.90;;;;;;4975284;28;20068;-73
2022/11/07 05:12:47;;;;;;;18.33;8.45;;;10.80;99.90;;;;;;4957532;28;20050;-73
2022/11/07 05:15:14;;;;;;;17.80;8.68;;;10.70;99.90;;;;;;4975371;28;20069;-73
2022/11/07 05:17:40;;;;;;;19.63;8.90;;;10.80;99.90;;;;;;4957738;28;20053;-73
2022/11/07 05:20:10;;;;;;;20.50;8.50;;;10.90;99.90;;;;;;4974748;28;20031;-74
2022/11/07 05:25:19;;;;;;;15.63;8.00;;;10.80;99.90;;;;;;4975178;28;20053;-74
2022/11/07 05:27:45;;;;;;;17.77;8.20;;;10.70;99.90;;;;;;4975136;28;20121;-74
2022/11/07 05:30:11;;;;;;;21.00;8.15;;;10.90;99.90;;;;;;4957804;28;20068;-74
2022/11/07 05:32:37;;;;;;;26.50;8.95;;;10.80;99.90;;;;;;4974698;28;20456;-75
2022/11/07 05:35:04;;;;;;;19.75;9.68;;;10.90;99.90;;;;;;4957466;28;20512;-75
2022/11/07 05:37:29;;;;;;;18.55;8.98;;;10.70;99.90;;;;;;4974875;28;20138;-74
2022/11/07 05:39:55;;;;;;;18.33;9.65;;;10.80;99.90;;;;;;4957168;28;20125;-75
2022/11/07 05:42:20;;;;;;;23.02;8.98;;;10.70;99.90;;;;;;4974731;28;20054;-74
2022/11/07 05:44:46;;;;;;;17.10;7.82;;;10.70;99.90;;;;;;4974673;28;20039;-75
2022/11/07 05:47:11;;;;;;;20.70;9.27;;;10.60;99.90;;;;;;4941267;28;20038;-75
2022/11/07 05:49:37;;;;;;;23.52;9.38;;;10.80;99.90;;;;;;4974483;28;20065;-74
2022/11/07 05:52:02;;;;;;;24.50;9.07;;;10.80;99.90;;;;;;4974678;28;20047;-72
2022/11/07 05:54:29;;;;;;;17.73;10.20;;;10.60;99.90;;;;;;4957178;28;20057;-72
2022/11/07 05:56:56;;;;;;;18.20;9.75;;;10.80;99.90;;;;;;4974535;28;20077;-72
2022/11/07 05:59:22;;;;;;;28.50;10.45;;;10.70;99.90;;;;;;4974406;28;20117;-73
2022/11/07 06:01:47;;;;;;;15.57;10.07;;;10.70;99.90;;;;;;4974358;28;20480;-73
2022/11/07 06:04:13;;;;;;;16.02;9.23;;;10.70;99.90;;;;;;4974010;28;20039;-73
2022/11/07 06:06:39;;;;;;;15.48;9.15;;;10.80;99.90;;;;;;4956849;28;20042;-74
2022/11/07 06:09:04;;;;;;;20.60;9.85;;;10.90;99.90;;;;;;4956944;28;20053;-74
2022/11/07 06:11:31;;;;;;;28.63;9.95;;;10.70;99.90;;;;;;4974254;28;20118;-74
2022/11/07 06:13:57;;;;;;;21.80;9.20;;;10.70;99.90;;;;;;4973922;28;20041;-74
2022/11/07 06:16:23;;;;;;;16.20;9.40;;;10.90;99.90;;;;;;4974016;28;20042;-74
2022/11/07 06:18:49;;;;;;;22.35;9.13;;;10.90;99.90;;;;;;4973804;28;20042;-74
2022/11/07 06:21:15;;;;;;;24.20;9.88;;;10.70;99.90;;;;;;4974093;28;20042;-73
2022/11/07 06:23:41;;;;;;;21.02;10.02;;;10.70;99.90;;;;;;4956329;28;20081;-74
2022/11/07 06:26:07;;;;;;;16.42;9.43;;;10.80;99.90;;;;;;4965174;28;20043;-74
2022/11/07 06:28:32;;;;;;;18.13;9.23;;;10.80;99.90;;;;;;4962816;28;20094;-74
2022/11/07 06:31:02;;;;;;;24.50;9.10;;;10.80;99.90;;;;;;4969808;28;20600;-74
2022/11/07 06:33:28;;;;;;;17.70;8.52;;;10.70;99.90;;;;;;4968133;28;20047;-74
2022/11/07 06:35:54;;;;;;;19.27;8.23;;;10.80;99.90;;;;;;4954449;29;20134;-74
2022/11/07 06:38:23;;;;;;;18.92;9.70;;;10.80;99.90;;;;;;4954432;29;20131;-74
2022/11/07 06:40:49;;;;;;;20.92;10.80;;;10.70;99.90;;;;;;4954218;28;20035;-74
2022/11/07 06:43:18;;;;;;;20.00;8.90;;;10.80;99.90;;;;;;4954048;29;20555;-75
2022/11/07 06:45:44;;;;;;;15.93;8.88;;;10.70;99.90;;;;;;4937060;29;20043;-75
2022/11/07 06:48:11;;;;;;;15.10;9.00;;;10.80;99.90;;;;;;4937083;29;20059;-75
2022/11/07 06:50:37;;;;;;;17.95;8.70;;;10.80;99.90;;;;;;4936973;29;20524;-75
2022/11/07 06:53:08;;;;;;;16.17;7.30;;;10.70;99.90;;;;;;4936740;29;20051;-74
2022/11/07 06:55:35;;;;;;;18.98;8.50;;;10.80;99.90;;;;;;4936876;29;20047;-75
2022/11/07 06:58:01;;;;;;;21.40;9.15;;;10.80;99.90;;;;;;4954069;29;20390;-74
2022/11/07 07:00:28;;;;;;;21.40;8.32;;;10.80;99.90;;;;;;4954013;28;20031;-74
2022/11/07 07:02:53;;;;;;;21.63;8.13;;;10.80;99.90;;;;;;4936635;29;20449;-74
2022/11/07 07:05:19;;;;;;;19.67;7.82;;;10.80;99.90;;;;;;4936914;29;20047;-75
2022/11/07 07:07:45;;;;;;;11.32;6.20;;;10.60;99.90;;;;;;4954072;29;20536;-74
2022/11/07 07:10:10;;;;;;;20.42;6.63;;;10.70;99.90;;;;;;4954008;28;20561;-75
2022/11/07 07:12:36;;;;;;;21.98;6.88;;;10.70;99.90;;;;;;4953606;29;20707;-74
2022/11/07 07:15:01;;;;;;;14.70;7.15;;;10.80;99.90;;;;;;4936724;29;20051;-75
2022/11/07 07:17:27;;;;;;;21.98;7.30;;;10.70;99.90;;;;;;4953721;29;20458;-76
2022/11/07 07:19:55;;;;;;;19.45;8.20;;;10.70;99.90;;;;;;4953771;28;20043;-75
2022/11/07 07:22:21;;;;;;;20.02;7.72;;;10.80;99.90;;;;;;4936541;29;20122;-75
2022/11/07 07:24:49;;;;;;;19.92;8.45;;;10.80;99.90;;;;;;4953732;29;20126;-74
2022/11/07 07:27:15;;;;;;;14.85;9.32;;;10.80;99.90;;;;;;4936738;29;20118;-74
2022/11/07 07:29:40;;;;;;;24.15;9.80;;;10.80;99.90;;;;;;4936439;28;20497;-74
2022/11/07 07:32:06;;;;;;;22.50;11.02;;;10.90;99.90;;;;;;4936598;29;20043;-75
2022/11/07 07:34:31;;;;;;;24.88;11.05;;;10.80;99.90;;;;;;4953617;28;20159;-75
2022/11/07 07:36:57;;;;;;;26.05;11.00;;;10.80;99.90;;;;;;4953714;29;20043;-75
2022/11/07 07:39:23;;;;;;;21.63;11.18;;;10.80;99.90;;;;;;4936408;29;20051;-76
2022/11/07 07:41:49;;;;;;;25.30;9.95;;;10.80;99.90;;;;;;4953513;28;20047;-75
2022/11/07 07:44:15;;;;;;;22.95;10.57;;;10.80;99.90;;;;;;4956009;28;20047;-75
2022/11/07 07:46:40;;;;;;;24.58;11.18;;;11.00;99.90;;;;;;4940335;29;20042;-74
2022/11/07 07:49:07;;;;;;;19.00;11.20;;;10.80;99.90;;;;;;4957705;29;20122;-75
2022/11/07 07:51:33;;;;;;;29.27;11.27;;;11.00;99.90;;;;;;4940355;29;20047;-75
2022/11/07 07:53:58;;;;;;;28.88;11.77;;;11.00;99.90;;;;;;4955892;29;20054;-75
2022/11/07 07:56:24;;;;;;;24.67;11.75;;;11.00;99.90;;;;;;4957489;28;20051;-76
2022/11/07 07:58:49;;;;;;;26.75;10.90;;;11.00;99.90;;;;;;4940170;29;20039;-76
2022/11/07 08:01:15;;;;;;;25.55;10.82;;;11.00;99.90;;;;;;4957751;28;20035;-75
2022/11/07 08:03:41;;;;;;;23.75;11.68;;;10.90;99.90;;;;;;4955789;28;20047;-75
2022/11/07 08:06:08;;;;;;;29.55;12.32;;;10.90;99.90;;;;;;4957427;28;20420;-75
2022/11/07 08:08:33;;;;;;;29.35;12.57;;;10.90;99.90;;;;;;4924218;29;20114;-75
2022/11/07 08:11:05;;;;;;;26.58;11.45;;;11.00;99.90;;;;;;4955952;28;20051;-75
2022/11/07 08:13:30;;;;;;;29.73;12.32;;;11.10;99.90;;;;;;4939528;28;20046;-75
2022/11/07 08:15:56;;;;;;;26.27;11.80;;;11.00;99.90;;;;;;4957343;28;20097;-76
2022/11/07 08:18:22;;;;;;;24.23;11.20;;;11.00;99.90;;;;;;4957050;29;20054;-75
2022/11/07 08:20:49;;;;;;;27.23;11.18;;;11.10;99.90;;;;;;4956878;28;20050;-75
2022/11/07 08:23:15;;;;;;;20.38;11.23;;;11.00;99.90;;;;;;4939408;29;20046;-76
2022/11/07 08:25:41;;;;;;;20.70;10.05;;;11.10;99.90;;;;;;4939645;29;20413;-75
2022/11/07 08:28:07;;;;;;;23.60;12.02;;;11.10;99.90;;;;;;4939780;29;20043;-76
2022/11/07 08:30:34;;;;;;;29.60;10.98;;;11.20;99.90;;;;;;4939688;28;20047;-76
2022/11/07 08:33:03;;;;;;;27.73;11.30;;;11.20;99.90;;;;;;4956762;29;20174;-75
2022/11/07 08:35:29;;;;;;;30.52;12.27;;;11.10;99.90;;;;;;4939699;29;20418;-76
2022/11/07 08:37:55;;;;;;;33.10;11.75;;;11.10;99.90;;;;;;4956944;29;20031;-76
2022/11/07 08:40:20;;;;;;;30.30;10.88;;;11.20;99.90;;;;;;4939674;29;20043;-75
2022/11/07 08:42:46;;;;;;;26.17;11.43;;;11.10;99.90;;;;;;4955231;28;20552;-75
2022/11/07 08:45:11;;;;;;;17.75;10.07;;;11.20;99.90;;;;;;4956907;29;20082;-75
2022/11/07 08:47:37;;;;;;;20.92;9.88;;;11.10;99.90;;;;;;4956725;29;20039;-75
2022/11/07 08:50:04;;;;;;;26.25;11.13;;;11.30;99.90;;;;;;4939807;29;20043;-75
2022/11/07 08:52:29;;;;;;;25.83;11.48;;;11.30;99.90;;;;;;4939180;29;20043;-75
2022/11/07 08:54:55;;;;;;;17.73;9.93;;;11.30;99.90;;;;;;4954910;28;20445;-75
2022/11/07 08:57:20;;;;;;;22.75;10.75;;;11.40;99.90;;;;;;4939581;28;20071;-75
2022/11/07 08:59:46;;;;;;;20.55;8.80;;;11.50;99.90;;;;;;4957075;28;20071;-75
2022/11/07 09:02:12;;;;;;;32.90;11.55;;;11.40;99.90;;;;;;4956797;29;20063;-76
2022/11/07 09:04:38;;;;;;;24.20;9.48;;;11.40;99.90;;;;;;4957076;29;20385;-76
2022/11/07 09:07:03;;;;;;;23.88;9.73;;;11.40;99.90;;;;;;4956673;29;20050;-76
2022/11/07 09:09:29;;;;;;;22.48;9.30;;;11.50;99.90;;;;;;4939315;29;20047;-76
2022/11/07 09:11:54;;;;;;;18.10;9.23;;;11.50;99.90;;;;;;4938898;28;20047;-75
2022/11/07 09:14:20;;;;;;;29.83;11.02;;;11.40;99.90;;;;;;4938681;29;20078;-75
2022/11/07 09:16:46;;;;;;;21.70;10.25;;;11.40;99.90;;;;;;4956156;29;20043;-76
2022/11/07 09:19:11;;;;;;;26.77;11.02;;;11.60;99.90;;;;;;4954970;29;20601;-76
2022/11/07 09:21:37;;;;;;;27.02;10.80;;;11.40;99.90;;;;;;4956002;28;20528;-76
2022/11/07 09:24:03;;;;;;;24.20;9.18;;;11.60;99.90;;;;;;4955813;29;20450;-76
2022/11/07 09:26:28;;;;;;;19.40;9.82;;;11.50;99.90;;;;;;4938665;29;20524;-75
2022/11/07 09:28:54;;;;;;;21.73;9.85;;;11.40;99.90;;;;;;4956248;28;20043;-76
2022/11/07 09:31:20;;;;;;;26.20;9.65;;;11.60;99.90;;;;;;4938334;29;20142;-75
2022/11/07 09:33:46;;;;;;;28.17;10.77;;;11.60;99.90;;;;;;4938469;29;20413;-75
2022/11/07 09:36:11;;;;;;;23.52;8.68;;;11.50;99.90;;;;;;4955765;29;20097;-74
2022/11/07 09:38:37;;;;;;;20.48;8.00;;;11.60;99.90;;;;;;4955312;28;20086;-75
2022/11/07 09:41:26;;;;;;;20.45;8.30;;;11.70;99.90;;;;;;4976563;23;20379;-72
2022/11/07 09:44:41;;;;;;;28.02;7.78;;;11.70;99.90;;;;;;4953318;28;20186;-72
2022/11/07 09:47:10;;;;;;;16.90;8.93;;;11.70;99.90;;;;;;4932518;29;20055;-72
2022/11/07 09:49:43;;;;;;;23.20;9.63;;;11.80;99.90;;;;;;4953560;28;20047;-72
2022/11/07 09:52:17;;;;;;;21.77;8.38;;;11.60;99.90;;;;;;4953878;28;20057;-72
2022/11/07 09:54:57;;;;;;;24.77;9.50;;;11.80;99.90;;;;;;4953359;29;20575;-72
2022/11/07 09:57:23;;;;;;;20.25;7.38;;;11.80;99.90;;;;;;4955139;28;20513;-72
2022/11/07 09:59:54;;;;;;;16.25;7.10;;;11.90;99.90;;;;;;4953530;29;20051;-74
2022/11/07 10:02:23;;;;;;;18.33;7.40;;;11.80;99.90;;;;;;4954700;28;20050;-73
2022/11/07 10:04:58;;;;;;;21.60;7.40;;;11.90;99.90;;;;;;4953629;29;20238;-72
2022/11/07 10:07:48;;;;;;;22.13;8.25;;;11.90;99.90;;;;;;4952485;28;20405;-72
2022/11/07 10:10:26;;;;;;;22.98;8.50;;;11.80;99.90;;;;;;4953467;28;20043;-72
2022/11/07 10:12:57;;;;;;;16.13;8.10;;;11.90;99.90;;;;;;4954601;28;20054;-72
2022/11/07 10:15:38;;;;;;;14.32;6.82;;;12.10;99.90;;;;;;4953455;29;20079;-72
2022/11/07 10:18:25;;;;;;;17.02;8.25;;;12.00;99.90;;;;;;4954841;28;20051;-72
2022/11/07 10:21:13;;;;;;;17.30;7.40;;;12.10;99.90;;;;;;4954648;28;20043;-72
2022/11/07 10:23:41;;;;;;;21.55;8.77;;;12.10;99.90;;;;;;4952857;29;20046;-72
2022/11/07 10:26:09;;;;;;;23.02;9.23;;;12.10;99.90;;;;;;4953154;28;20043;-75
2022/11/07 10:28:55;;;;;;;19.02;7.25;;;12.00;99.90;;;;;;4954561;28;20541;-72
2022/11/07 10:31:21;;;;;;;28.25;8.43;;;11.90;99.90;;;;;;4953314;28;20413;-73
2022/11/07 10:33:52;;;;;;;16.17;6.78;;;12.10;99.90;;;;;;4953902;28;20741;-72
2022/11/07 10:36:24;;;;;;;16.63;7.05;;;12.10;99.90;;;;;;4953141;28;20043;-73
2022/11/07 10:38:50;;;;;;;18.63;7.22;;;12.00;99.90;;;;;;4953974;28;20071;-73
2022/11/07 10:41:20;;;;;;;21.90;7.40;;;12.10;99.90;;;;;;4952528;28;20039;-73
2022/11/07 10:43:51;;;;;;;17.02;7.07;;;12.00;99.90;;;;;;4952356;29;20082;-73
2022/11/07 10:46:39;;;;;;;15.98;6.72;;;12.20;99.90;;;;;;4954084;28;20054;-73
2022/11/07 10:49:25;;;;;;;19.25;7.10;;;12.10;99.90;;;;;;4954258;28;20047;-73
2022/11/07 10:51:51;;;;;;;20.77;6.80;;;12.20;99.90;;;;;;4953815;28;20131;-73
2022/11/07 10:54:30;;;;;;;15.07;5.55;;;12.40;99.90;;;;;;4952354;29;20047;-73
2022/11/07 10:57:08;;;;;;;15.90;6.68;;;12.30;99.90;;;;;;4952500;29;20042;-73
2022/11/07 10:59:36;;;;;;;16.67;7.00;;;12.40;99.90;;;;;;4952329;28;20683;-74
2022/11/07 11:02:18;;;;;;;19.38;6.43;;;12.20;99.90;;;;;;4952721;28;20458;-73
2022/11/07 11:04:48;;;;;;;18.77;7.10;;;12.30;99.90;;;;;;4954098;28;20039;-74
2022/11/07 11:07:14;;;;;;;18.15;7.47;;;12.30;99.90;;;;;;4952568;29;20039;-74
2022/11/07 11:09:54;;;;;;;17.08;6.57;;;12.30;99.90;;;;;;4953748;28;20094;-74
2022/11/07 11:12:26;;;;;;;17.75;7.95;;;12.30;99.90;;;;;;4952380;28;20126;-74
2022/11/07 11:15:12;;;;;;;20.33;6.93;;;12.50;99.90;;;;;;4952377;29;20519;-74
2022/11/07 11:17:38;;;;;;;15.73;7.05;;;12.50;99.90;;;;;;4949210;28;20047;-74
2022/11/07 11:20:05;;;;;;;13.50;6.85;;;12.60;99.90;;;;;;4951909;28;20162;-74
2022/11/07 11:22:39;;;;;;;24.73;7.60;;;12.60;99.90;;;;;;4951884;29;20486;-75
2022/11/07 11:25:26;;;;;;;19.80;6.88;;;12.70;99.90;;;;;;4953577;28;20492;-74
2022/11/07 11:28:06;;;;;;;22.73;7.40;;;12.50;99.90;;;;;;4936520;29;20378;-74
2022/11/07 11:30:34;;;;;;;19.40;7.30;;;12.70;99.90;;;;;;4952228;28;20071;-74
2022/11/07 11:33:11;;;;;;;13.93;5.93;;;12.50;99.90;;;;;;4951650;29;20050;-74
2022/11/07 11:35:48;;;;;;;15.48;6.45;;;12.70;99.90;;;;;;4952320;29;20121;-74
2022/11/07 11:38:21;;;;;;;20.50;5.68;;;12.80;99.90;;;;;;4953501;28;20055;-74
2022/11/07 11:41:03;;;;;;;19.52;6.75;;;12.80;99.90;;;;;;4952280;28;20078;-74
2022/11/07 11:43:40;;;;;;;16.77;5.72;;;12.80;99.90;;;;;;4953353;28;20122;-74
2022/11/07 11:46:13;;;;;;;19.63;6.90;;;12.80;99.90;;;;;;4952328;29;20051;-74
2022/11/07 11:49:02;;;;;;;15.63;6.30;;;12.60;99.90;;;;;;4952202;29;20043;-74
2022/11/07 11:51:44;;;;;;;15.80;5.63;;;12.80;99.90;;;;;;4951807;28;20082;-70
2022/11/07 11:54:12;;;;;;;12.95;5.78;;;12.80;99.90;;;;;;4952609;28;20413;-70
2022/11/07 11:57:00;;;;;;;10.95;5.70;;;12.80;99.90;;;;;;4952370;28;20569;-70
2022/11/07 11:59:51;;;;;;;13.55;5.88;;;12.80;99.90;;;;;;4952125;28;20405;-70
2022/11/07 12:02:39;;;;;;;13.57;5.18;;;12.90;99.90;;;;;;4952578;28;20043;-70
2022/11/07 12:05:35;;;;;;;13.95;5.20;;;13.00;99.90;;;;;;4952945;28;20035;-70
2022/11/07 12:08:25;;;;;;;14.73;6.35;;;13.10;99.90;;;;;;4967991;28;20032;-70
2022/11/07 12:11:04;;;;;;;17.35;5.72;;;13.00;99.90;;;;;;4953298;28;20039;-69
2022/11/07 12:13:38;;;;;;;18.05;5.22;;;13.10;99.90;;;;;;4953004;28;20450;-70
2022/11/07 12:16:16;;;;;;;12.82;5.20;;;13.20;99.90;;;;;;4952964;28;20047;-70
2022/11/07 12:19:12;;;;;;;14.20;6.07;;;13.30;99.90;;;;;;4952855;28;20035;-70
2022/11/07 12:21:38;;;;;;;12.30;4.68;;;13.60;99.90;;;;;;4933888;29;20119;-70
2022/11/07 12:24:30;;;;;;;12.95;5.10;;;13.40;99.90;;;;;;4933722;29;20450;-70
2022/11/07 12:27:16;;;;;;;11.60;5.20;;;13.70;99.90;;;;;;4933806;29;20401;-70
2022/11/07 12:30:04;;;;;;;15.18;5.38;;;13.40;99.90;;;;;;4938596;29;20051;-70
2022/11/07 12:32:36;;;;;;;14.00;6.20;;;13.40;99.90;;;;;;4951752;29;20581;-70
2022/11/07 12:35:25;;;;;;;12.00;4.30;;;13.60;99.90;;;;;;4956103;28;20521;-70
2022/11/07 12:38:22;;;;;;;10.88;4.63;;;13.60;99.90;;;;;;4956171;28;20057;-70
2022/11/07 12:41:09;;;;;;;12.70;4.35;;;13.70;99.90;;;;;;4955274;28;20557;-70
2022/11/07 12:44:01;;;;;;;12.93;4.65;;;13.60;99.90;;;;;;4956112;28;20505;-71
2022/11/07 12:46:47;;;;;;;11.48;4.38;;;13.80;99.90;;;;;;4956566;29;20035;-70
2022/11/07 12:49:30;;;;;;;12.70;3.92;;;13.80;99.90;;;;;;4956505;28;20126;-70
2022/11/07 12:52:14;;;;;;;15.07;4.28;;;13.90;99.90;;;;;;4955311;29;20085;-70
2022/11/07 12:54:48;;;;;;;13.20;4.15;;;14.00;99.90;;;;;;4956438;28;20526;-70
2022/11/07 12:57:18;;;;;;;9.68;3.60;;;13.80;99.90;;;;;;4956499;28;20090;-69
2022/11/07 12:59:56;;;;;;;9.07;3.83;;;13.70;99.90;;;;;;4956132;28;20047;-70